AirNav   Air Wisconsin Up To $57,000 Bonus
 
 1380 users online  

2CL0 Commerce Business Park Heliport
City of Commerce, California, USA

GOING TO CITY OF COMMERCE?


FAA INFORMATION EFFECTIVE 08 OCTOBER 2020

Location

FAA Identifier: 2CL0
Lat/Long: 33-59-15.2500N 118-09-41.3200W
33-59.254167N 118-09.688667W
33.9875694,-118.1614778
(estimated)
Elevation: 135 ft. / 41 m (estimated)
Variation: 14E (1985)
Time zone: UTC -7 (UTC -8 during Standard Time)
Zip code: 90040

Heliport Operations

Heliport use: Private use. Permission required prior to landing
Activation date: 04/1988
Control tower: no
ARTCC: LOS ANGELES CENTER
FSS: HAWTHORNE FLIGHT SERVICE STATION
Attendance: UNATNDD
Wind indicator: lighted
Segmented circle: no
Lights: FOR PERIMETER LGTS CALL 213-724-2246

Heliport Communications

WX AWOS-3PT at CPM (7 nm SW): 127.150 (310-631-4958)
WX AWOS-3PT at EMT (9 nm NE): 118.75 ((626) 444-1107)
WX ASOS at HHR (9 nm SW): PHONE 310-973-8930
WX ASOS at LGB (10 nm S): PHONE 562-424-0572
WX ASOS at FUL (11 nm SE): PHONE 714-870-1372
WX ASOS at LAX (13 nm W): PHONE 310-568-1486
WX ASOS at SMO (15 nm W): PHONE 310-392-6453
WX ASOS at BUR (16 nm NW): PHONE 818-841-1384
WX AWOS-3PT at POC (20 nm E): 124.4 (909-596-1523)

Nearby radio navigation aids

VOR radial/distance  VOR name  Freq  Var
SLIr322/13.4SEAL BEACH VORTAC115.7015E
LAXr061/13.9LOS ANGELES VORTAC113.6015E
SMOr080/14.7SANTA MONICA VOR/DME110.8015E
POMr239/19.4POMONA VORTAC110.4015E
VNYr116/21.7VAN NUYS VOR/DME113.1015E
ELBr297/28.5EL TORO VOR/DME117.2014E
PDZr263/31.7PARADISE VORTAC112.2015E
RALr259/(35.5)RIVERSIDE VOR112.4014E
PMDr172/38.9PALMDALE VORTAC114.5015E
SXCr004/39.0SANTA CATALINA VORTAC111.4015E

Heliport Services

Runway Information

Helipad H1

Dimensions: 65 x 65 ft. / 20 x 20 m
Surface: concrete
Latitude: 33-59.254167N
Longitude: 118-09.688667W
Elevation: 135.0 ft.
Traffic pattern: leftleft

Heliport Ownership and Management from official FAA records

Ownership: Privately-owned
Owner: NEWCROW IV
5801 S EASTERN
CITY OF COMMERCE, CA 90040
Phone 213-724-2246
Manager: THOMAS BESSLER
5801 S EASTERN
CITY OF COMMERCE, CA 90040
Phone 213-724-2246

Additional Remarks

A40 PERIMETER LGTS
FOR CD CTC LOS ANGELES ARTCC AT 661-575-2079.

Instrument Procedures

There are no published instrument procedures at 2CL0.

Some nearby airports with instrument procedures:

KEMT - San Gabriel Valley Airport (9 nm NE)
KHHR - Jack Northrop Field/Hawthorne Municipal Airport (9 nm SW)
KLGB - Long Beach Airport (Daugherty Field) (10 nm S)
KFUL - Fullerton Municipal Airport (11 nm SE)
KLAX - Los Angeles International Airport (13 nm W)
KSLI - Los Alamitos Army Airfield (13 nm SE)
KTOA - Zamperini Field Airport (14 nm SW)
KSMO - Santa Monica Municipal Airport (15 nm W)
KBUR - Bob Hope Airport (16 nm NW)
KPOC - Brackett Field Airport (20 nm E)
 
Loc | Ops | Rwys | IFR | FBO | Links
Com | Nav | Svcs | Stats | Notes

San Bernardino International Airport Authority
 
Area around 2CL0 (Commerce Business Park Heliport)
 
Road maps at: MapQuest Bing Google
 
Aerial photo
No photo
 
Sectional chart

 
Airport distance calculator
Flying to Commerce Business Park Heliport? Find the distance to fly.

From to 2CL0

Sunrise and sunset
Times for 21-Oct-2020
 Local
(UTC-7)
 Zulu
(UTC)
Morning civil twilight06:3913:39
Sunrise07:0514:05
Sunset18:1001:10
Evening civil twilight18:3501:35

Current date and time
Zulu (UTC)  21-Oct-2020 21:25:36
Local (UTC-7)  21-Oct-2020 14:25:36
 
METAR
KCQT 
5nm NW 
212052Z AUTO 00000KT 3SM HZ CLR 23/15 A2980 RMK AO2 SLP089 T02330150 58018
KEMT 
9nm NE 
212045Z 20004KT 3SM HZ CLR 23/16 A2982
KHHR 
10nm SW 
212053Z 26009KT 6SM HZ OVC023 22/15 A2982 RMK AO2 SLP095 T02220150 58017
KLGB 
10nm S 
212053Z 18003KT 10SM FEW024 22/15 A2981 RMK AO2 SLP095 T02170150 58018
KFUL 
11nm SE 
212053Z 30004KT 5SM HZ FEW023 FEW030 24/15 A2980 RMK AO2 SLP090 T02440150 58020
KLAX 
12nm W 
212053Z 25009KT 5SM BR SCT019 BKN021 21/16 A2982 RMK AO2 SLP095 T02110156 58015
KSMO 
14nm W 
212051Z 22007KT 4SM HZ OVC019 21/16 A2982 RMK AO2 SLP095 T02110156 58016
KTOA 
14nm SW 
212049Z 27008KT 10SM FEW015 23/16 A2981
KSLI 
15nm SE 
212058Z 00000KT 7SM FEW030 25/16 A2980 RMK AO2A SLP094 T02470164 57020
KBUR 
16nm NW 
212053Z 4SM HZ CLR 23/14 A2981 RMK AO2 SLP082 T02330144 58020
TAF
KLGB 
10nm S 
211724Z 2118/2218 09003KT 3SM HZ OVC013 FM211900 19008KT P6SM SCT016 FM212300 25006KT P6SM SKC FM220400 VRB03KT P6SM BKN009 FM220800 VRB03KT P6SM OVC016 FM221600 17005KT P6SM BKN020
KLAX 
12nm W 
211724Z 2118/2224 14005KT 3SM BR OVC015 FM212000 26012KT P6SM SCT015 FM220100 26010KT P6SM BKN014 FM220300 26008KT 6SM BR OVC009 FM220800 VRB03KT P6SM OVC014 FM221700 19006KT P6SM OVC020 FM222100 25010KT P6SM BKN025
KSMO 
14nm W 
211724Z 2118/2218 31003KT 3SM HZ OVC012 FM212000 23008KT 6SM HZ SCT015 FM220300 VRB03KT P6SM SKC FM220600 VRB03KT 5SM BR OVC008 FM220900 VRB03KT 6SM BR OVC012 FM221500 05004KT P6SM OVC015
KSLI 
15nm SE 
211301Z 2113/2219 VRB06KT 9000 BR OVC011 QNH2979INS BECMG 2117/2118 VRB06KT 8000 BR SCT020 QNH2978INS BECMG 2119/2120 VRB06KT 9999 NSW SKC QNH2977INS BECMG 2204/2205 VRB06KT 9000 BR BKN015 QNH2982INS TX26/2123Z TN17/2114Z
KBUR 
16nm NW 
212004Z 2120/2218 VRB06KT 4SM HZ SKC FM212100 17008KT P6SM SKC FM220300 VRB03KT P6SM SKC FM220500 VRB03KT 6SM BR BKN008 FM221000 VRB03KT P6SM OVC014
NOTAMs
Click for the latest NOTAMs
NOTAMs are issued by the DoD/FAA and will open in a separate window not controlled by AirNav.

 

 
 

Would you like to see your business listed on this page?

 If your business provides an interesting product or service to pilots, flight crews, aircraft, or users of the Commerce Business Park Heliport, you should consider listing it here.  To start the listing process, click on the button below
 
Add a business
 

Other Pages about Commerce Business Park Heliport

Update a link
 
Copyright © AirNav, LLC. All rights reserved. Privacy Policy  Contact